Machens, Missouri
Current Conditions -  °F | °C
As of 4:54 PM on Tuesday 25 Nov 2014 (Local Time) from KSET Reporting Station
Clear Clear  
Wind Chill: -1°   Ceiling: Unl
Heat Index:   Visibility: 10mi
Dew Point: -4°   Wind: 5mph
Humidity: 67%   Direction: 300°WNW
Pressure: 30.16"   Gusts: NA
Location:  38.9266°N, 90.3904°W
Report Text: KSET 252254Z AUTO 30004KT 10SM CLR 02/M04 A3016 RMK AO2 SLP214 T00171039
Loading
Personal Weather Stations






























Interactive Weather Map New forecast layout! Learn more

10-Day Weather Forecast

Advertisements
Track Severe Weather on mobile